sensor_id;sensor_type;location;lat;lon;timestamp;temperature;humidity
48579;DHT22;34357;51.948;6.132;2023-04-01T00:01:40;9.70;93.70
48579;DHT22;34357;51.948;6.132;2023-04-01T00:04:06;9.80;93.80
48579;DHT22;34357;51.948;6.132;2023-04-01T00:06:32;9.70;93.80
48579;DHT22;34357;51.948;6.132;2023-04-01T00:08:58;9.70;93.80
48579;DHT22;34357;51.948;6.132;2023-04-01T00:11:23;9.80;93.90
48579;DHT22;34357;51.948;6.132;2023-04-01T00:13:49;9.70;94.00
48579;DHT22;34357;51.948;6.132;2023-04-01T00:16:15;9.70;94.00
48579;DHT22;34357;51.948;6.132;2023-04-01T00:18:41;9.70;94.00
48579;DHT22;34357;51.948;6.132;2023-04-01T00:21:07;9.70;94.00
48579;DHT22;34357;51.948;6.132;2023-04-01T00:23:33;9.70;94.10
48579;DHT22;34357;51.948;6.132;2023-04-01T00:26:00;9.70;94.20
48579;DHT22;34357;51.948;6.132;2023-04-01T00:28:27;9.70;94.20
48579;DHT22;34357;51.948;6.132;2023-04-01T00:30:53;9.70;94.20
48579;DHT22;34357;51.948;6.132;2023-04-01T00:33:20;9.70;94.30
48579;DHT22;34357;51.948;6.132;2023-04-01T00:35:45;9.70;94.30
48579;DHT22;34357;51.948;6.132;2023-04-01T00:38:12;9.70;94.40
48579;DHT22;34357;51.948;6.132;2023-04-01T00:40:41;9.70;94.40
48579;DHT22;34357;51.948;6.132;2023-04-01T00:43:19;9.60;94.40
48579;DHT22;34357;51.948;6.132;2023-04-01T00:45:47;9.60;94.50
48579;DHT22;34357;51.948;6.132;2023-04-01T00:50:43;9.70;94.60
48579;DHT22;34357;51.948;6.132;2023-04-01T00:53:10;9.70;94.50
48579;DHT22;34357;51.948;6.132;2023-04-01T00:55:41;9.60;94.60
48579;DHT22;34357;51.948;6.132;2023-04-01T00:58:15;9.60;94.60
48579;DHT22;34357;51.948;6.132;2023-04-01T01:00:42;9.60;94.60
48579;DHT22;34357;51.948;6.132;2023-04-01T01:03:08;9.60;94.60
48579;DHT22;34357;51.948;6.132;2023-04-01T01:06:10;9.70;94.70
48579;DHT22;34357;51.948;6.132;2023-04-01T01:11:22;9.70;94.70
48579;DHT22;34357;51.948;6.132;2023-04-01T01:16:53;9.70;94.60
48579;DHT22;34357;51.948;6.132;2023-04-01T01:22:44;9.70;94.70
48579;DHT22;34357;51.948;6.132;2023-04-01T01:28:33;9.80;94.70
48579;DHT22;34357;51.948;6.132;2023-04-01T01:31:23;9.80;94.70
48579;DHT22;34357;51.948;6.132;2023-04-01T01:36:30;9.80;94.60
48579;DHT22;34357;51.948;6.132;2023-04-01T01:38:57;9.80;94.60
48579;DHT22;34357;51.948;6.132;2023-04-01T01:41:25;9.80;94.60
48579;DHT22;34357;51.948;6.132;2023-04-01T01:43:53;9.80;94.60
48579;DHT22;34357;51.948;6.132;2023-04-01T01:46:23;9.90;94.70
48579;DHT22;34357;51.948;6.132;2023-04-01T01:48:50;9.80;94.50
48579;DHT22;34357;51.948;6.132;2023-04-01T01:51:18;9.80;94.50
48579;DHT22;34357;51.948;6.132;2023-04-01T01:53:45;9.80;94.50
48579;DHT22;34357;51.948;6.132;2023-04-01T01:56:12;9.80;94.50
48579;DHT22;34357;51.948;6.132;2023-04-01T01:58:42;9.80;94.60
48579;DHT22;34357;51.948;6.132;2023-04-01T02:01:24;9.80;94.50
48579;DHT22;34357;51.948;6.132;2023-04-01T02:03:53;9.80;94.50
48579;DHT22;34357;51.948;6.132;2023-04-01T02:06:22;9.80;94.50
48579;DHT22;34357;51.948;6.132;2023-04-01T02:09:03;9.80;94.50
48579;DHT22;34357;51.948;6.132;2023-04-01T02:11:34;9.80;94.50
48579;DHT22;34357;51.948;6.132;2023-04-01T02:14:15;9.80;94.50
48579;DHT22;34357;51.948;6.132;2023-04-01T02:19:36;9.80;94.60
48579;DHT22;34357;51.948;6.132;2023-04-01T02:22:05;9.80;94.60
48579;DHT22;34357;51.948;6.132;2023-04-01T02:24:34;9.90;94.60
48579;DHT22;34357;51.948;6.132;2023-04-01T02:27:01;9.90;94.60
48579;DHT22;34357;51.948;6.132;2023-04-01T02:29:28;9.80;94.70
48579;DHT22;34357;51.948;6.132;2023-04-01T02:31:54;9.90;94.70
48579;DHT22;34357;51.948;6.132;2023-04-01T02:34:22;9.80;94.70
48579;DHT22;34357;51.948;6.132;2023-04-01T02:36:49;9.80;94.70
48579;DHT22;34357;51.948;6.132;2023-04-01T02:39:15;9.80;94.70
48579;DHT22;34357;51.948;6.132;2023-04-01T02:41:43;9.80;94.70
48579;DHT22;34357;51.948;6.132;2023-04-01T02:44:10;9.80;94.70
48579;DHT22;34357;51.948;6.132;2023-04-01T02:46:36;9.80;94.60
48579;DHT22;34357;51.948;6.132;2023-04-01T02:49:04;9.80;94.60
48579;DHT22;34357;51.948;6.132;2023-04-01T02:51:30;9.80;94.70
48579;DHT22;34357;51.948;6.132;2023-04-01T02:53:55;9.80;94.60
48579;DHT22;34357;51.948;6.132;2023-04-01T02:56:21;9.80;94.70
48579;DHT22;34357;51.948;6.132;2023-04-01T02:58:47;9.80;94.70
48579;DHT22;34357;51.948;6.132;2023-04-01T03:01:13;9.80;94.70
48579;DHT22;34357;51.948;6.132;2023-04-01T03:03:39;9.90;94.70
48579;DHT22;34357;51.948;6.132;2023-04-01T03:06:11;9.80;94.70
48579;DHT22;34357;51.948;6.132;2023-04-01T03:08:37;9.80;94.70
48579;DHT22;34357;51.948;6.132;2023-04-01T03:11:03;9.80;94.70
48579;DHT22;34357;51.948;6.132;2023-04-01T03:13:31;9.80;94.70
48579;DHT22;34357;51.948;6.132;2023-04-01T03:15:57;9.70;94.70
48579;DHT22;34357;51.948;6.132;2023-04-01T03:18:23;9.70;94.70
48579;DHT22;34357;51.948;6.132;2023-04-01T03:20:48;9.70;94.70
48579;DHT22;34357;51.948;6.132;2023-04-01T03:23:14;9.70;94.70
48579;DHT22;34357;51.948;6.132;2023-04-01T03:25:43;9.60;94.70
48579;DHT22;34357;51.948;6.132;2023-04-01T03:28:09;9.60;94.70
48579;DHT22;34357;51.948;6.132;2023-04-01T03:30:36;9.60;94.70
48579;DHT22;34357;51.948;6.132;2023-04-01T03:33:02;9.60;94.70
48579;DHT22;34357;51.948;6.132;2023-04-01T03:35:30;9.60;94.70
48579;DHT22;34357;51.948;6.132;2023-04-01T03:37:56;9.60;94.70
48579;DHT22;34357;51.948;6.132;2023-04-01T03:40:22;9.60;94.70
48579;DHT22;34357;51.948;6.132;2023-04-01T03:42:48;9.60;94.70
48579;DHT22;34357;51.948;6.132;2023-04-01T03:45:14;9.50;94.70
48579;DHT22;34357;51.948;6.132;2023-04-01T03:47:40;9.60;94.80
48579;DHT22;34357;51.948;6.132;2023-04-01T03:50:07;9.60;94.70
48579;DHT22;34357;51.948;6.132;2023-04-01T03:52:33;9.60;94.70
48579;DHT22;34357;51.948;6.132;2023-04-01T03:55:00;9.60;94.70
48579;DHT22;34357;51.948;6.132;2023-04-01T03:57:26;9.60;94.70
48579;DHT22;34357;51.948;6.132;2023-04-01T03:59:56;9.50;94.70
48579;DHT22;34357;51.948;6.132;2023-04-01T04:02:21;9.60;94.80
48579;DHT22;34357;51.948;6.132;2023-04-01T04:04:47;9.50;94.70
48579;DHT22;34357;51.948;6.132;2023-04-01T04:07:13;9.50;94.70
48579;DHT22;34357;51.948;6.132;2023-04-01T04:10:10;9.60;94.70
48579;DHT22;34357;51.948;6.132;2023-04-01T04:12:36;9.60;94.70
48579;DHT22;34357;51.948;6.132;2023-04-01T04:15:02;9.50;94.70
48579;DHT22;34357;51.948;6.132;2023-04-01T04:17:28;9.50;94.70
48579;DHT22;34357;51.948;6.132;2023-04-01T04:19:54;9.50;94.70
48579;DHT22;34357;51.948;6.132;2023-04-01T04:22:20;9.40;94.70
48579;DHT22;34357;51.948;6.132;2023-04-01T04:24:46;9.50;94.70
48579;DHT22;34357;51.948;6.132;2023-04-01T04:27:12;9.50;94.70
48579;DHT22;34357;51.948;6.132;2023-04-01T04:29:48;9.50;94.60
48579;DHT22;34357;51.948;6.132;2023-04-01T04:32:14;9.40;94.60
48579;DHT22;34357;51.948;6.132;2023-04-01T04:34:40;9.50;94.60
48579;DHT22;34357;51.948;6.132;2023-04-01T04:37:06;9.40;94.60
48579;DHT22;34357;51.948;6.132;2023-04-01T04:39:35;9.50;94.70
48579;DHT22;34357;51.948;6.132;2023-04-01T04:42:01;9.50;94.60
48579;DHT22;34357;51.948;6.132;2023-04-01T04:44:27;9.40;94.60
48579;DHT22;34357;51.948;6.132;2023-04-01T04:46:53;9.40;94.70
48579;DHT22;34357;51.948;6.132;2023-04-01T04:49:18;9.40;94.70
48579;DHT22;34357;51.948;6.132;2023-04-01T04:51:44;9.40;94.70
48579;DHT22;34357;51.948;6.132;2023-04-01T04:54:13;9.40;94.70
48579;DHT22;34357;51.948;6.132;2023-04-01T04:56:54;9.40;94.70
48579;DHT22;34357;51.948;6.132;2023-04-01T04:59:21;9.40;94.70
48579;DHT22;34357;51.948;6.132;2023-04-01T05:02:16;9.40;94.70
48579;DHT22;34357;51.948;6.132;2023-04-01T05:04:42;9.30;94.80
48579;DHT22;34357;51.948;6.132;2023-04-01T05:07:09;9.30;94.80
48579;DHT22;34357;51.948;6.132;2023-04-01T05:09:35;9.40;94.80
48579;DHT22;34357;51.948;6.132;2023-04-01T05:12:02;9.40;94.80
48579;DHT22;34357;51.948;6.132;2023-04-01T05:14:36;9.40;94.80
48579;DHT22;34357;51.948;6.132;2023-04-01T05:17:12;9.40;94.80
48579;DHT22;34357;51.948;6.132;2023-04-01T05:19:38;9.40;94.80
48579;DHT22;34357;51.948;6.132;2023-04-01T05:22:05;9.40;94.90
48579;DHT22;34357;51.948;6.132;2023-04-01T05:24:31;9.40;94.80
48579;DHT22;34357;51.948;6.132;2023-04-01T05:26:58;9.40;94.80
48579;DHT22;34357;51.948;6.132;2023-04-01T05:29:25;9.30;94.80
48579;DHT22;34357;51.948;6.132;2023-04-01T05:31:57;9.30;94.90
48579;DHT22;34357;51.948;6.132;2023-04-01T05:34:23;9.40;94.80
48579;DHT22;34357;51.948;6.132;2023-04-01T05:36:48;9.30;94.80
48579;DHT22;34357;51.948;6.132;2023-04-01T05:39:16;9.30;94.80
48579;DHT22;34357;51.948;6.132;2023-04-01T05:41:42;9.30;94.90
48579;DHT22;34357;51.948;6.132;2023-04-01T05:44:11;9.30;94.90
48579;DHT22;34357;51.948;6.132;2023-04-01T05:46:40;9.40;94.90
48579;DHT22;34357;51.948;6.132;2023-04-01T05:49:24;9.40;94.90
48579;DHT22;34357;51.948;6.132;2023-04-01T05:51:50;9.30;94.90
48579;DHT22;34357;51.948;6.132;2023-04-01T05:54:18;9.40;95.00
48579;DHT22;34357;51.948;6.132;2023-04-01T05:56:44;9.40;94.90
48579;DHT22;34357;51.948;6.132;2023-04-01T05:59:11;9.40;94.90
48579;DHT22;34357;51.948;6.132;2023-04-01T06:01:37;9.40;94.90
48579;DHT22;34357;51.948;6.132;2023-04-01T06:04:03;9.40;95.00
48579;DHT22;34357;51.948;6.132;2023-04-01T06:06:30;9.40;95.00
48579;DHT22;34357;51.948;6.132;2023-04-01T06:09:24;9.40;95.00
48579;DHT22;34357;51.948;6.132;2023-04-01T06:23:18;9.50;95.10
48579;DHT22;34357;51.948;6.132;2023-04-01T06:26:00;9.50;95.10
48579;DHT22;34357;51.948;6.132;2023-04-01T06:47:56;9.60;94.90
48579;DHT22;34357;51.948;6.132;2023-04-01T06:54:24;9.60;94.80
48579;DHT22;34357;51.948;6.132;2023-04-01T06:57:31;9.70;94.80
48579;DHT22;34357;51.948;6.132;2023-04-01T07:00:02;9.70;94.60
48579;DHT22;34357;51.948;6.132;2023-04-01T07:02:39;9.70;94.70
48579;DHT22;34357;51.948;6.132;2023-04-01T07:05:07;9.80;94.60
48579;DHT22;34357;51.948;6.132;2023-04-01T07:07:39;9.80;94.50
48579;DHT22;34357;51.948;6.132;2023-04-01T07:10:31;9.90;94.50
48579;DHT22;34357;51.948;6.132;2023-04-01T07:13:45;9.90;94.40
48579;DHT22;34357;51.948;6.132;2023-04-01T07:16:21;9.90;94.30
48579;DHT22;34357;51.948;6.132;2023-04-01T07:19:03;9.90;94.20
48579;DHT22;34357;51.948;6.132;2023-04-01T07:21:54;9.90;94.10
48579;DHT22;34357;51.948;6.132;2023-04-01T07:24:34;10.00;94.00
48579;DHT22;34357;51.948;6.132;2023-04-01T07:27:12;10.10;93.90
48579;DHT22;34357;51.948;6.132;2023-04-01T07:29:40;10.10;93.70
48579;DHT22;34357;51.948;6.132;2023-04-01T07:32:16;10.00;93.70
48579;DHT22;34357;51.948;6.132;2023-04-01T07:35:07;10.10;93.70
48579;DHT22;34357;51.948;6.132;2023-04-01T07:40:31;10.30;93.50
48579;DHT22;34357;51.948;6.132;2023-04-01T07:48:55;10.40;93.20
48579;DHT22;34357;51.948;6.132;2023-04-01T07:51:29;10.40;93.20
48579;DHT22;34357;51.948;6.132;2023-04-01T07:57:13;10.60;93.20
48579;DHT22;34357;51.948;6.132;2023-04-01T08:00:07;10.60;93.00
48579;DHT22;34357;51.948;6.132;2023-04-01T08:02:57;10.60;92.90
48579;DHT22;34357;51.948;6.132;2023-04-01T08:05:41;10.80;93.20
48579;DHT22;34357;51.948;6.132;2023-04-01T08:15:00;10.80;92.70
48579;DHT22;34357;51.948;6.132;2023-04-01T08:26:25;10.90;92.30
48579;DHT22;34357;51.948;6.132;2023-04-01T08:31:45;11.10;92.50
48579;DHT22;34357;51.948;6.132;2023-04-01T08:34:24;11.30;92.50
48579;DHT22;34357;51.948;6.132;2023-04-01T08:37:02;11.40;92.20
48579;DHT22;34357;51.948;6.132;2023-04-01T08:39:43;11.40;91.90
48579;DHT22;34357;51.948;6.132;2023-04-01T08:56:47;11.70;90.70
48579;DHT22;34357;51.948;6.132;2023-04-01T09:37:18;11.40;92.60
48579;DHT22;34357;51.948;6.132;2023-04-01T09:43:00;11.50;92.90
48579;DHT22;34357;51.948;6.132;2023-04-01T09:52:04;11.60;92.80
48579;DHT22;34357;51.948;6.132;2023-04-01T09:54:19;11.50;92.70
48579;DHT22;34357;51.948;6.132;2023-04-01T10:00:06;11.50;93.00
48579;DHT22;34357;51.948;6.132;2023-04-01T10:03:19;11.40;93.00
48579;DHT22;34357;51.948;6.132;2023-04-01T10:28:36;11.20;93.70
48579;DHT22;34357;51.948;6.132;2023-04-01T10:46:30;11.00;93.90
48579;DHT22;34357;51.948;6.132;2023-04-01T10:49:10;10.90;93.90
48579;DHT22;34357;51.948;6.132;2023-04-01T10:58:17;11.10;93.90
48579;DHT22;34357;51.948;6.132;2023-04-01T11:26:05;11.40;93.50
48579;DHT22;34357;51.948;6.132;2023-04-01T11:40:47;11.20;93.80
48579;DHT22;34357;51.948;6.132;2023-04-01T11:43:48;11.20;93.80
48579;DHT22;34357;51.948;6.132;2023-04-01T12:00:28;11.30;94.20
48579;DHT22;34357;51.948;6.132;2023-04-01T12:06:22;11.20;94.00
48579;DHT22;34357;51.948;6.132;2023-04-01T12:09:01;11.20;94.00
48579;DHT22;34357;51.948;6.132;2023-04-01T12:15:22;11.40;94.00
48579;DHT22;34357;51.948;6.132;2023-04-01T12:17:43;11.50;93.80
48579;DHT22;34357;51.948;6.132;2023-04-01T12:28:01;11.90;92.70
48579;DHT22;34357;51.948;6.132;2023-04-01T12:33:41;11.70;92.40
48579;DHT22;34357;51.948;6.132;2023-04-01T12:36:18;11.70;92.50
48579;DHT22;34357;51.948;6.132;2023-04-01T12:41:59;11.60;92.50
48579;DHT22;34357;51.948;6.132;2023-04-01T12:44:50;11.80;92.70
48579;DHT22;34357;51.948;6.132;2023-04-01T12:47:23;11.80;92.80
48579;DHT22;34357;51.948;6.132;2023-04-01T13:01:03;11.70;93.10
48579;DHT22;34357;51.948;6.132;2023-04-01T13:17:31;11.60;93.50
48579;DHT22;34357;51.948;6.132;2023-04-01T13:23:09;11.40;93.40
48579;DHT22;34357;51.948;6.132;2023-04-01T13:25:38;11.40;93.50
48579;DHT22;34357;51.948;6.132;2023-04-01T13:28:20;11.40;93.50
48579;DHT22;34357;51.948;6.132;2023-04-01T13:31:22;11.50;93.60
48579;DHT22;34357;51.948;6.132;2023-04-01T13:34:34;11.50;93.50
48579;DHT22;34357;51.948;6.132;2023-04-01T13:37:30;11.50;93.60
48579;DHT22;34357;51.948;6.132;2023-04-01T13:40:13;11.50;93.70
48579;DHT22;34357;51.948;6.132;2023-04-01T13:43:07;11.50;93.80
48579;DHT22;34357;51.948;6.132;2023-04-01T13:45:45;11.50;93.70
48579;DHT22;34357;51.948;6.132;2023-04-01T14:07:14;11.10;94.10
48579;DHT22;34357;51.948;6.132;2023-04-01T14:10:13;11.10;94.30
48579;DHT22;34357;51.948;6.132;2023-04-01T14:13:12;11.10;94.30
48579;DHT22;34357;51.948;6.132;2023-04-01T14:18:33;10.90;94.30
48579;DHT22;34357;51.948;6.132;2023-04-01T14:26:50;10.90;94.40
48579;DHT22;34357;51.948;6.132;2023-04-01T14:49:30;10.90;94.40
48579;DHT22;34357;51.948;6.132;2023-04-01T14:52:11;11.00;94.50
48579;DHT22;34357;51.948;6.132;2023-04-01T14:54:42;11.00;94.50
48579;DHT22;34357;51.948;6.132;2023-04-01T14:57:12;11.10;94.60
48579;DHT22;34357;51.948;6.132;2023-04-01T14:59:48;11.20;94.60
48579;DHT22;34357;51.948;6.132;2023-04-01T15:02:31;11.30;94.50
48579;DHT22;34357;51.948;6.132;2023-04-01T15:05:27;11.40;94.50
48579;DHT22;34357;51.948;6.132;2023-04-01T15:08:05;11.40;94.40
48579;DHT22;34357;51.948;6.132;2023-04-01T15:10:46;11.50;94.40
48579;DHT22;34357;51.948;6.132;2023-04-01T15:18:49;11.50;94.00
48579;DHT22;34357;51.948;6.132;2023-04-01T15:21:41;11.50;93.90
48579;DHT22;34357;51.948;6.132;2023-04-01T15:27:27;11.30;93.80
48579;DHT22;34357;51.948;6.132;2023-04-01T15:30:11;11.30;93.90
48579;DHT22;34357;51.948;6.132;2023-04-01T15:40:40;10.90;94.10
48579;DHT22;34357;51.948;6.132;2023-04-01T15:43:31;10.90;94.20
48579;DHT22;34357;51.948;6.132;2023-04-01T15:52:50;10.90;94.40
48579;DHT22;34357;51.948;6.132;2023-04-01T16:04:06;10.90;94.50
48579;DHT22;34357;51.948;6.132;2023-04-01T16:09:59;10.80;94.60
48579;DHT22;34357;51.948;6.132;2023-04-01T16:23:48;10.80;94.70
48579;DHT22;34357;51.948;6.132;2023-04-01T16:29:12;10.80;94.70
48579;DHT22;34357;51.948;6.132;2023-04-01T16:31:51;10.80;94.70
48579;DHT22;34357;51.948;6.132;2023-04-01T16:34:43;10.80;94.80
48579;DHT22;34357;51.948;6.132;2023-04-01T16:37:20;10.80;94.80
48579;DHT22;34357;51.948;6.132;2023-04-01T16:47:50;10.70;94.70
48579;DHT22;34357;51.948;6.132;2023-04-01T16:53:19;10.40;94.60
48579;DHT22;34357;51.948;6.132;2023-04-01T16:58:40;10.20;94.50
48579;DHT22;34357;51.948;6.132;2023-04-01T17:03:45;10.20;94.50
48579;DHT22;34357;51.948;6.132;2023-04-01T17:11:24;10.10;94.50
48579;DHT22;34357;51.948;6.132;2023-04-01T17:14:07;10.20;94.50
48579;DHT22;34357;51.948;6.132;2023-04-01T17:19:56;10.10;94.50
48579;DHT22;34357;51.948;6.132;2023-04-01T17:22:33;10.10;94.50
48579;DHT22;34357;51.948;6.132;2023-04-01T17:27:57;10.10;94.50
48579;DHT22;34357;51.948;6.132;2023-04-01T17:30:33;10.10;94.60
48579;DHT22;34357;51.948;6.132;2023-04-01T17:38:42;9.90;94.50
48579;DHT22;34357;51.948;6.132;2023-04-01T17:41:41;9.80;94.50
48579;DHT22;34357;51.948;6.132;2023-04-01T17:49:42;9.60;94.30
48579;DHT22;34357;51.948;6.132;2023-04-01T18:05:39;9.60;94.40
48579;DHT22;34357;51.948;6.132;2023-04-01T18:08:14;9.60;94.50
48579;DHT22;34357;51.948;6.132;2023-04-01T18:13:47;9.50;94.50
48579;DHT22;34357;51.948;6.132;2023-04-01T18:24:21;9.30;94.40
48579;DHT22;34357;51.948;6.132;2023-04-01T18:27:12;9.30;94.40
48579;DHT22;34357;51.948;6.132;2023-04-01T18:32:52;9.20;94.40
48579;DHT22;34357;51.948;6.132;2023-04-01T18:38:24;9.00;94.30
48579;DHT22;34357;51.948;6.132;2023-04-01T18:41:40;9.10;94.30
48579;DHT22;34357;51.948;6.132;2023-04-01T18:43:48;9.10;94.30
48579;DHT22;34357;51.948;6.132;2023-04-01T18:49:19;9.00;94.40
48579;DHT22;34357;51.948;6.132;2023-04-01T18:51:48;9.00;94.40
48579;DHT22;34357;51.948;6.132;2023-04-01T18:54:31;9.00;94.40
48579;DHT22;34357;51.948;6.132;2023-04-01T18:57:18;9.00;94.40
48579;DHT22;34357;51.948;6.132;2023-04-01T18:59:55;9.00;94.40
48579;DHT22;34357;51.948;6.132;2023-04-01T19:02:38;8.90;94.30
48579;DHT22;34357;51.948;6.132;2023-04-01T19:05:14;8.90;94.30
48579;DHT22;34357;51.948;6.132;2023-04-01T19:08:13;8.80;94.20
48579;DHT22;34357;51.948;6.132;2023-04-01T19:10:54;8.90;94.30
48579;DHT22;34357;51.948;6.132;2023-04-01T19:19:16;8.80;93.80
48579;DHT22;34357;51.948;6.132;2023-04-01T19:29:54;8.70;93.90
48579;DHT22;34357;51.948;6.132;2023-04-01T19:35:58;8.70;94.00
48579;DHT22;34357;51.948;6.132;2023-04-01T19:49:17;8.60;93.80
48579;DHT22;34357;51.948;6.132;2023-04-01T19:51:56;8.50;93.70
48579;DHT22;34357;51.948;6.132;2023-04-01T19:57:24;8.50;93.70
48579;DHT22;34357;51.948;6.132;2023-04-01T20:00:15;8.50;93.70
48579;DHT22;34357;51.948;6.132;2023-04-01T20:05:46;8.40;93.70
48579;DHT22;34357;51.948;6.132;2023-04-01T20:17:02;8.40;93.50
48579;DHT22;34357;51.948;6.132;2023-04-01T20:20:03;8.30;93.40
48579;DHT22;34357;51.948;6.132;2023-04-01T20:25:16;8.30;93.40
48579;DHT22;34357;51.948;6.132;2023-04-01T20:39:57;8.10;93.50
48579;DHT22;34357;51.948;6.132;2023-04-01T20:42:34;8.10;93.40
48579;DHT22;34357;51.948;6.132;2023-04-01T20:50:56;8.00;93.40
48579;DHT22;34357;51.948;6.132;2023-04-01T20:58:57;7.90;93.10
48579;DHT22;34357;51.948;6.132;2023-04-01T21:07:27;7.90;92.90
48579;DHT22;34357;51.948;6.132;2023-04-01T21:10:24;7.90;92.90
48579;DHT22;34357;51.948;6.132;2023-04-01T21:13:04;7.80;92.90
48579;DHT22;34357;51.948;6.132;2023-04-01T21:15:46;7.80;92.80
48579;DHT22;34357;51.948;6.132;2023-04-01T21:18:36;7.70;92.80
48579;DHT22;34357;51.948;6.132;2023-04-01T21:21:31;7.70;92.80
48579;DHT22;34357;51.948;6.132;2023-04-01T21:26:57;7.60;92.70
48579;DHT22;34357;51.948;6.132;2023-04-01T21:32:28;7.70;92.60
48579;DHT22;34357;51.948;6.132;2023-04-01T21:40:54;7.50;92.70
48579;DHT22;34357;51.948;6.132;2023-04-01T21:43:56;7.50;92.50
48579;DHT22;34357;51.948;6.132;2023-04-01T22:01:04;7.50;92.40
48579;DHT22;34357;51.948;6.132;2023-04-01T22:11:55;7.40;92.80
48579;DHT22;34357;51.948;6.132;2023-04-01T22:15:31;7.30;92.80
48579;DHT22;34357;51.948;6.132;2023-04-01T22:17:54;7.30;92.70
48579;DHT22;34357;51.948;6.132;2023-04-01T22:21:24;7.30;92.50
48579;DHT22;34357;51.948;6.132;2023-04-01T22:29:07;7.20;92.20
48579;DHT22;34357;51.948;6.132;2023-04-01T22:31:53;7.20;92.30
48579;DHT22;34357;51.948;6.132;2023-04-01T22:37:17;7.20;92.40
48579;DHT22;34357;51.948;6.132;2023-04-01T22:40:00;7.20;92.30
48579;DHT22;34357;51.948;6.132;2023-04-01T22:51:18;7.00;92.30
48579;DHT22;34357;51.948;6.132;2023-04-01T22:53:42;7.00;92.20
48579;DHT22;34357;51.948;6.132;2023-04-01T22:56:16;6.90;92.10
48579;DHT22;34357;51.948;6.132;2023-04-01T22:58:56;7.00;92.20
48579;DHT22;34357;51.948;6.132;2023-04-01T23:01:30;7.00;92.40
48579;DHT22;34357;51.948;6.132;2023-04-01T23:03:59;6.90;92.40
48579;DHT22;34357;51.948;6.132;2023-04-01T23:06:30;6.90;92.30
48579;DHT22;34357;51.948;6.132;2023-04-01T23:11:51;6.80;92.30
48579;DHT22;34357;51.948;6.132;2023-04-01T23:20:17;6.80;92.40
48579;DHT22;34357;51.948;6.132;2023-04-01T23:22:48;6.70;92.40
48579;DHT22;34357;51.948;6.132;2023-04-01T23:33:19;6.50;92.20
48579;DHT22;34357;51.948;6.132;2023-04-01T23:35:57;6.50;92.20
48579;DHT22;34357;51.948;6.132;2023-04-01T23:38:38;6.50;92.20
48579;DHT22;34357;51.948;6.132;2023-04-01T23:41:05;6.50;92.10
48579;DHT22;34357;51.948;6.132;2023-04-01T23:43:34;6.50;92.20
48579;DHT22;34357;51.948;6.132;2023-04-01T23:46:03;6.40;92.20
48579;DHT22;34357;51.948;6.132;2023-04-01T23:48:39;6.50;92.40
48579;DHT22;34357;51.948;6.132;2023-04-01T23:51:18;6.50;92.40
48579;DHT22;34357;51.948;6.132;2023-04-01T23:53:46;6.50;92.40
48579;DHT22;34357;51.948;6.132;2023-04-01T23:56:16;6.40;92.30
48579;DHT22;34357;51.948;6.132;2023-04-01T23:58:48;6.40;92.30
